< < Back
Terminal Aerodrome Forecast


Current Version              Previous Versions:   1  2  3  4  5  6  7  8  9  

Terminal Aerodrome Forecast

652
FTUS44 KBMX 281137
TAFMGM
TAF
KMGM 281137Z 2812/2912 08007KT P6SM BKN250
     FM281600 09010KT P6SM SCT050
     FM290100 07006KT P6SM SCT250=

Latest METAR

081
SAUS80 KWBC 290300 CCA
MTRMGM
METAR KMGM 290253Z 01004KT 10SM SCT070 29/21 A3003 RMK AO2 SLP165
T02890206 53012


USA.gov is the U.S. government's official web portal to all federal, state and local government web resources and services.